Toluca Jose Maria, Mexico

7:27 AM CDT on August 26, 2016 (GMT -0500)
Bosque Real | | Change Station

Elev 8212 ft 19.43 °N, 99.29 °W | Updated 1 minute ago

Mostly Cloudy
Mostly Cloudy
51.6 °F
Feels Like 51.6 °F
N
0.0
Wind Variable Wind from NW

Today
High -- | Low -- °F
--% Chance of Precip.
Yesterday
High -- | Low -- °F
Precip. -- in
Pressure 30.37 in
Visibility 6.0 miles
Clouds Mostly Cloudy 2000 ft
Mostly Cloudy 8000 ft
Dew Point 50 °F
Humidity 93%
Rainfall 0.03 in
Snow Depth Not available.
7:21 AM 7:57 PM
Waning Crescent, 35% visible
METAR MMMX 261222Z 06005KT 6SM BKN020 BKN080 14/11 A3037 NOSIG RMK 8/530 HZY
Pressure 30.37 in
Visibility 6.0 miles
Clouds Mostly Cloudy 2000 ft
Mostly Cloudy 8000 ft
Dew Point 50 °F
Humidity 93%
Rainfall 0.03 in
Snow Depth Not available.
7:21 AM 7:57 PM
Waning Crescent, 35% visible
METAR MMMX 261222Z 06005KT 6SM BKN020 BKN080 14/11 A3037 NOSIG RMK 8/530 HZY

10-Day Weather Forecast

No radar image for this location.
×

Almanac

Astronomy

Aug. 26, 2016 Rise Set
Actual Time
Civil Twilight
Nautical Twilight
Astronomical Twilight
Moon
Length of Visible Light
Length of Day
Tomorrow will be .
, % of the Moon is Illuminated

Today's Extremes

Country Highs Country Lows

Community

WunderPhotos

Upload Photos

1,935,080 photos uploaded!

WunderBlog® & News

Nearby

Air Quality

  Air Quality AQ Index Pollutant
Not available.

Snow Depth

Station Depth Elevation

Earthquake Activity

City Distance Mag. Time & Date
Minimum magnitude displayed is 2.5.

Coastal Water Temperatures

Place Temperature

Stations

Nearby Weather Stations

Station Location Temp. Windchill Dew Point Humidity Wind Precip. Elev Updated Type